Time;durP1;ratioP1;P1;durP2;ratioP2;P2;SDS_P1;SDS_P2;PMS_P1;PMS_P2;Temp;Humidity;BMP_temperature;BMP_pressure;BME280_temperature;BME280_humidity;BME280_pressure;Samples;Min_cycle;Max_cycle;Signal;HPM_P1;HPM_P2
2022/01/05 00:00:49;;;;;;;2.43;1.53;;;15.10;84.50;;;;;;2005201;28;20722;-75
2022/01/05 00:01:47;;;;;;;3.47;1.73;;;15.10;84.60;;;;;;2005135;28;20208;-75
2022/01/05 00:02:46;;;;;;;6.93;2.20;;;15.10;84.80;;;;;;2004746;28;20203;-75
2022/01/05 00:03:44;;;;;;;2.40;1.80;;;15.10;84.60;;;;;;2005004;28;20235;-75
2022/01/05 00:04:43;;;;;;;3.07;1.70;;;15.10;84.70;;;;;;2004969;28;20176;-75
2022/01/05 00:05:43;;;;;;;4.23;1.83;;;15.10;84.80;;;;;;2004871;28;20200;-74
2022/01/05 00:06:41;;;;;;;4.97;2.22;;;15.20;84.80;;;;;;2005248;28;20197;-75
2022/01/05 00:07:40;;;;;;;3.33;2.03;;;15.10;84.80;;;;;;2005764;28;20275;-75
2022/01/05 00:08:38;;;;;;;2.43;1.40;;;15.10;84.80;;;;;;2005851;28;20180;-75
2022/01/05 00:09:37;;;;;;;3.23;1.73;;;15.10;84.60;;;;;;2005800;28;20165;-74
2022/01/05 00:10:35;;;;;;;3.03;1.60;;;15.20;84.80;;;;;;2013302;28;20255;-75
2022/01/05 00:11:35;;;;;;;6.43;2.00;;;15.20;84.70;;;;;;2015502;28;20222;-74
2022/01/05 00:12:34;;;;;;;2.67;1.45;;;15.20;84.80;;;;;;2006844;28;20224;-74
2022/01/05 00:13:33;;;;;;;2.83;1.33;;;15.10;84.70;;;;;;2005860;28;20267;-74
2022/01/05 00:14:33;;;;;;;4.20;2.20;;;15.10;84.70;;;;;;2007067;28;20246;-75
2022/01/05 00:15:31;;;;;;;2.55;1.70;;;15.10;84.80;;;;;;2007416;28;20474;-74
2022/01/05 00:16:30;;;;;;;3.40;2.00;;;15.10;84.70;;;;;;2007379;28;20197;-75
2022/01/05 00:17:29;;;;;;;3.13;1.73;;;15.10;84.80;;;;;;2007680;28;20173;-74
2022/01/05 00:18:28;;;;;;;4.70;1.80;;;15.10;84.70;;;;;;2007712;28;20168;-74
2022/01/05 00:19:26;;;;;;;2.83;1.70;;;15.10;84.60;;;;;;2007246;28;20177;-74
2022/01/05 00:20:25;;;;;;;4.43;1.47;;;15.10;84.80;;;;;;2007226;28;20172;-75
2022/01/05 00:21:23;;;;;;;4.83;1.90;;;15.10;84.80;;;;;;2007202;28;20404;-75
2022/01/05 00:22:22;;;;;;;2.97;1.77;;;15.10;84.80;;;;;;2007184;28;20199;-74
2022/01/05 00:23:21;;;;;;;2.57;1.60;;;15.10;84.80;;;;;;2007124;28;20181;-74
2022/01/05 00:24:19;;;;;;;3.40;1.60;;;15.10;85.00;;;;;;2007362;28;20412;-74
2022/01/05 00:25:18;;;;;;;4.47;1.97;;;15.10;84.90;;;;;;2007423;28;20187;-75
2022/01/05 00:26:16;;;;;;;1.73;1.60;;;15.10;84.80;;;;;;2007191;28;20179;-75
2022/01/05 00:27:16;;;;;;;2.53;1.70;;;15.10;85.10;;;;;;2007022;28;20538;-74
2022/01/05 00:28:16;;;;;;;2.88;1.45;;;15.10;85.60;;;;;;2007039;28;20177;-74
2022/01/05 00:29:14;;;;;;;4.10;1.67;;;15.10;84.90;;;;;;2007237;28;20199;-75
2022/01/05 00:30:13;;;;;;;4.20;1.57;;;15.10;85.00;;;;;;2007107;28;20177;-75
2022/01/05 00:31:11;;;;;;;2.97;1.60;;;15.10;85.00;;;;;;2007351;28;20195;-75
2022/01/05 00:32:10;;;;;;;2.10;1.50;;;15.10;85.00;;;;;;2007211;28;20592;-75
2022/01/05 00:33:09;;;;;;;2.70;1.70;;;15.10;85.00;;;;;;2007215;28;20169;-75
2022/01/05 00:34:08;;;;;;;5.63;1.70;;;15.10;84.90;;;;;;2007045;28;20250;-75
2022/01/05 00:35:07;;;;;;;3.27;1.80;;;15.10;85.10;;;;;;2007334;28;20404;-75
2022/01/05 00:36:05;;;;;;;3.10;1.60;;;15.10;85.20;;;;;;2007156;28;20512;-75
2022/01/05 00:37:04;;;;;;;3.10;1.57;;;15.10;85.10;;;;;;2007079;28;20392;-75
2022/01/05 00:38:03;;;;;;;2.90;1.70;;;15.10;85.10;;;;;;2006629;28;20248;-76
2022/01/05 00:39:02;;;;;;;2.93;1.53;;;15.10;85.00;;;;;;2006643;28;20435;-76
2022/01/05 00:40:01;;;;;;;4.90;1.40;;;15.10;85.60;;;;;;2006999;28;20423;-74
2022/01/05 00:41:00;;;;;;;2.60;1.97;;;15.10;85.00;;;;;;2006668;28;20268;-75
2022/01/05 00:41:59;;;;;;;3.23;1.53;;;15.10;84.90;;;;;;2006621;28;20447;-75
2022/01/05 00:42:57;;;;;;;5.53;2.03;;;15.10;85.10;;;;;;2014356;28;20439;-74
2022/01/05 00:43:56;;;;;;;5.03;2.07;;;15.10;84.90;;;;;;2007986;28;20205;-74
2022/01/05 00:44:54;;;;;;;6.30;1.80;;;15.00;85.00;;;;;;2007195;28;20176;-75
2022/01/05 00:45:53;;;;;;;2.80;1.50;;;15.00;84.90;;;;;;2007191;28;20244;-75
2022/01/05 00:46:52;;;;;;;2.58;1.65;;;15.00;85.00;;;;;;2007067;28;20185;-75
2022/01/05 00:47:51;;;;;;;4.13;1.90;;;15.00;85.10;;;;;;2007205;28;20624;-75
2022/01/05 00:48:49;;;;;;;3.13;1.60;;;15.00;85.10;;;;;;2006502;28;20180;-75
2022/01/05 00:49:48;;;;;;;3.87;1.20;;;15.00;85.30;;;;;;2006744;28;20177;-75
2022/01/05 00:50:46;;;;;;;3.77;1.83;;;15.00;85.20;;;;;;2007010;28;20173;-75
2022/01/05 00:51:45;;;;;;;3.40;1.90;;;15.00;85.20;;;;;;2007123;28;20169;-75
2022/01/05 00:52:43;;;;;;;5.13;2.40;;;15.00;85.30;;;;;;2007033;28;20205;-75
2022/01/05 00:53:42;;;;;;;3.40;1.70;;;15.00;85.30;;;;;;2014355;28;20180;-75
2022/01/05 00:54:41;;;;;;;4.00;1.90;;;15.00;85.30;;;;;;2014507;28;20184;-75
2022/01/05 00:55:40;;;;;;;2.90;1.60;;;15.10;85.30;;;;;;2006467;28;20677;-75
2022/01/05 00:56:38;;;;;;;14.97;2.33;;;15.00;85.40;;;;;;2006652;28;20197;-74
2022/01/05 00:57:37;;;;;;;1.50;1.17;;;15.00;85.30;;;;;;2007172;28;20172;-75
2022/01/05 00:58:35;;;;;;;4.27;1.70;;;15.10;85.30;;;;;;2007136;28;20169;-74
2022/01/05 00:59:34;;;;;;;2.40;1.50;;;15.00;85.20;;;;;;2007411;28;20582;-74
2022/01/05 01:00:32;;;;;;;4.00;1.70;;;15.00;85.00;;;;;;2007194;28;20177;-74
2022/01/05 01:01:31;;;;;;;2.10;1.43;;;15.00;85.40;;;;;;2007237;28;20277;-74
2022/01/05 01:02:29;;;;;;;2.47;1.30;;;15.00;85.40;;;;;;2007269;28;20180;-75
2022/01/05 01:03:28;;;;;;;1.90;1.60;;;15.10;85.50;;;;;;2007072;28;20321;-74
2022/01/05 01:04:26;;;;;;;2.43;1.50;;;15.00;85.40;;;;;;2007060;28;20173;-75
2022/01/05 01:05:25;;;;;;;2.90;1.60;;;15.00;85.60;;;;;;2006478;28;20191;-74
2022/01/05 01:06:24;;;;;;;2.27;1.60;;;15.00;85.50;;;;;;2006526;28;20224;-74
2022/01/05 01:07:22;;;;;;;2.80;2.27;;;15.00;85.70;;;;;;2007319;28;20173;-75
2022/01/05 01:08:21;;;;;;;2.70;1.50;;;15.00;85.70;;;;;;2007420;28;20183;-75
2022/01/05 01:09:20;;;;;;;3.10;1.60;;;15.10;85.70;;;;;;2007199;28;20224;-74
2022/01/05 01:10:19;;;;;;;3.30;1.60;;;15.00;85.80;;;;;;2014592;28;20183;-75
2022/01/05 01:11:17;;;;;;;3.30;1.70;;;15.00;85.80;;;;;;2006989;28;20188;-74
2022/01/05 01:12:16;;;;;;;5.67;1.60;;;15.00;85.80;;;;;;2006952;28;20244;-74
2022/01/05 01:13:17;;;;;;;1.40;1.30;;;15.00;85.70;;;;;;2014794;28;20192;-75
2022/01/05 01:14:15;;;;;;;3.10;1.55;;;15.00;85.80;;;;;;2016620;28;20153;-75
2022/01/05 01:15:14;;;;;;;2.50;1.40;;;15.00;85.90;;;;;;2016705;28;20196;-74
2022/01/05 01:16:13;;;;;;;2.00;1.30;;;15.00;86.00;;;;;;2016136;28;20161;-75
2022/01/05 01:17:12;;;;;;;4.13;1.60;;;15.00;85.90;;;;;;2015237;28;20523;-76
2022/01/05 01:18:11;;;;;;;2.40;1.50;;;15.00;86.10;;;;;;2014610;28;20200;-75
2022/01/05 01:19:11;;;;;;;1.85;1.35;;;15.00;86.00;;;;;;2007335;28;20215;-74
2022/01/05 01:20:11;;;;;;;3.10;1.60;;;15.00;85.90;;;;;;2006473;28;20200;-76
2022/01/05 01:21:10;;;;;;;1.90;1.45;;;15.00;85.80;;;;;;2006351;28;20212;-75
2022/01/05 01:22:09;;;;;;;1.67;1.20;;;15.00;85.80;;;;;;2007385;28;20173;-75
2022/01/05 01:23:08;;;;;;;2.50;1.70;;;15.00;85.80;;;;;;2007090;28;20169;-75
2022/01/05 01:24:06;;;;;;;2.60;1.55;;;15.00;85.90;;;;;;2007168;28;20236;-74
2022/01/05 01:25:06;;;;;;;3.73;1.53;;;14.90;86.10;;;;;;2007086;28;20177;-74
2022/01/05 01:26:07;;;;;;;1.42;1.30;;;15.00;86.10;;;;;;2004579;28;20181;-75
2022/01/05 01:27:06;;;;;;;2.17;1.38;;;15.00;86.30;;;;;;2005313;28;20209;-75
2022/01/05 01:28:06;;;;;;;3.00;1.80;;;15.00;86.00;;;;;;2005602;28;20180;-75
2022/01/05 01:29:04;;;;;;;2.92;1.50;;;15.00;85.90;;;;;;2005809;28;20235;-75
2022/01/05 01:30:04;;;;;;;3.10;1.40;;;15.00;86.00;;;;;;2005966;28;20173;-75
2022/01/05 01:31:03;;;;;;;3.35;1.55;;;15.00;86.10;;;;;;2005793;28;20251;-75
2022/01/05 01:32:04;;;;;;;2.78;1.55;;;15.00;86.10;;;;;;2005782;28;20188;-75
2022/01/05 01:33:03;;;;;;;1.63;1.25;;;15.00;85.70;;;;;;2005690;28;20675;-75
2022/01/05 01:34:01;;;;;;;2.67;1.33;;;15.00;88.40;;;;;;2005912;28;20196;-75
2022/01/05 01:35:00;;;;;;;1.53;1.23;;;15.00;87.80;;;;;;2013013;28;20207;-75
2022/01/05 01:35:59;;;;;;;4.10;1.70;;;15.00;87.80;;;;;;2013267;28;20173;-75
2022/01/05 01:36:58;;;;;;;5.95;1.70;;;15.00;88.00;;;;;;2006353;28;20620;-75
2022/01/05 01:37:57;;;;;;;4.23;1.73;;;15.00;87.90;;;;;;2005804;28;20195;-75
2022/01/05 01:38:56;;;;;;;2.80;1.30;;;15.10;88.10;;;;;;2005778;28;20925;-75
2022/01/05 01:39:56;;;;;;;2.30;1.20;;;15.10;88.00;;;;;;2005528;28;20856;-76
2022/01/05 01:40:56;;;;;;;6.60;1.70;;;15.10;88.00;;;;;;2005696;28;20612;-76
2022/01/05 01:41:55;;;;;;;5.05;1.75;;;15.00;87.90;;;;;;2005789;28;20187;-76
2022/01/05 01:42:53;;;;;;;2.57;1.40;;;15.00;87.80;;;;;;2005772;28;20177;-76
2022/01/05 01:43:52;;;;;;;2.10;1.67;;;15.10;88.00;;;;;;2005867;28;20260;-76
2022/01/05 01:44:50;;;;;;;2.93;2.10;;;15.00;88.10;;;;;;2005529;28;20181;-76
2022/01/05 01:45:49;;;;;;;3.73;1.77;;;15.10;88.00;;;;;;2005864;28;20178;-74
2022/01/05 01:46:48;;;;;;;2.73;1.50;;;15.00;88.00;;;;;;2005505;28;20193;-73
2022/01/05 01:47:46;;;;;;;3.53;1.77;;;15.00;88.10;;;;;;2005588;28;20183;-75
2022/01/05 01:48:45;;;;;;;1.70;1.40;;;15.00;88.10;;;;;;2005653;28;20168;-75
2022/01/05 01:49:43;;;;;;;4.70;2.10;;;15.00;88.10;;;;;;2005666;28;20200;-75
2022/01/05 01:50:42;;;;;;;5.40;1.80;;;15.00;88.20;;;;;;2005403;28;20532;-74
2022/01/05 01:51:41;;;;;;;1.50;1.30;;;15.00;88.20;;;;;;2005582;28;20177;-74
2022/01/05 01:52:40;;;;;;;3.43;1.67;;;15.00;88.30;;;;;;2004837;28;20312;-75
2022/01/05 01:53:38;;;;;;;2.40;1.30;;;15.00;88.10;;;;;;2005041;28;20180;-75
2022/01/05 01:54:38;;;;;;;2.97;1.63;;;15.00;88.30;;;;;;2005652;28;20169;-75
2022/01/05 01:55:37;;;;;;;1.70;1.27;;;15.00;88.30;;;;;;2005636;28;20257;-74
2022/01/05 01:56:38;;;;;;;2.75;1.60;;;15.00;88.30;;;;;;2004803;28;20194;-74
2022/01/05 01:57:42;;;;;;;2.67;1.50;;;15.00;88.20;;;;;;2005039;28;20169;-75
2022/01/05 01:58:41;;;;;;;2.45;1.27;;;14.90;88.20;;;;;;2005758;28;20154;-75
2022/01/05 01:59:39;;;;;;;2.00;1.30;;;15.00;88.30;;;;;;2005652;28;20264;-75
2022/01/05 02:00:39;;;;;;;2.50;1.80;;;14.90;88.60;;;;;;2005583;28;20499;-75
2022/01/05 02:01:40;;;;;;;3.38;1.20;;;14.90;88.50;;;;;;2005678;28;20235;-75
2022/01/05 02:02:39;;;;;;;3.30;1.33;;;14.90;88.50;;;;;;2005340;28;20209;-74
2022/01/05 02:03:37;;;;;;;2.10;1.27;;;14.90;88.70;;;;;;2005524;28;20181;-75
2022/01/05 02:04:36;;;;;;;2.27;1.30;;;14.90;88.70;;;;;;2005472;28;20716;-75
2022/01/05 02:05:35;;;;;;;2.47;1.53;;;14.90;88.60;;;;;;2005588;28;20169;-75
2022/01/05 02:06:33;;;;;;;1.73;1.23;;;14.90;88.50;;;;;;2005595;28;20439;-74
2022/01/05 02:07:32;;;;;;;2.13;1.23;;;14.90;88.60;;;;;;2005425;28;20181;-74
2022/01/05 02:08:31;;;;;;;2.80;1.53;;;14.90;88.70;;;;;;2005354;28;20240;-75
2022/01/05 02:09:29;;;;;;;2.63;1.60;;;14.90;88.80;;;;;;2005498;28;20260;-74
2022/01/05 02:10:28;;;;;;;2.93;1.40;;;14.90;88.80;;;;;;2005640;28;20187;-75
2022/01/05 02:11:27;;;;;;;3.87;1.30;;;14.90;88.60;;;;;;2005779;28;20700;-75
2022/01/05 02:12:27;;;;;;;3.53;1.90;;;14.90;88.60;;;;;;2005375;28;20565;-75
2022/01/05 02:13:26;;;;;;;1.48;1.10;;;14.90;88.60;;;;;;2004751;28;20181;-75
2022/01/05 02:14:24;;;;;;;4.83;1.60;;;14.90;88.60;;;;;;2004709;28;20255;-75
2022/01/05 02:15:24;;;;;;;5.17;1.50;;;14.90;89.40;;;;;;2005302;28;20259;-75
2022/01/05 02:16:30;;;;;;;2.85;1.45;;;14.90;88.70;;;;;;2005602;28;20201;-75
2022/01/05 02:17:49;;;;;;;2.83;1.52;;;14.80;88.50;;;;;;2005639;28;20635;-75
2022/01/05 02:18:59;;;;;;;2.97;1.40;;;14.90;88.80;;;;;;2005521;28;20240;-74
2022/01/05 02:19:59;;;;;;;5.75;1.50;;;14.80;89.00;;;;;;2005297;28;20164;-75
2022/01/05 02:20:59;;;;;;;2.28;1.33;;;14.80;89.10;;;;;;2005443;28;20161;-75
2022/01/05 02:21:58;;;;;;;3.08;1.45;;;14.80;89.10;;;;;;2004987;28;20225;-75
2022/01/05 02:22:56;;;;;;;4.90;1.80;;;14.80;89.20;;;;;;1997052;28;20693;-75
2022/01/05 02:23:55;;;;;;;3.03;1.80;;;14.80;88.90;;;;;;2004388;28;20203;-75
2022/01/05 02:24:53;;;;;;;3.07;1.77;;;14.80;89.20;;;;;;2004905;28;20376;-75
2022/01/05 02:25:52;;;;;;;2.73;1.37;;;14.80;89.10;;;;;;2012302;28;20165;-75
2022/01/05 02:26:51;;;;;;;3.77;2.00;;;14.80;89.00;;;;;;2005796;28;20640;-73
2022/01/05 02:27:51;;;;;;;2.60;1.47;;;14.80;89.10;;;;;;2005271;28;20840;-74
2022/01/05 02:28:50;;;;;;;3.25;1.83;;;14.90;89.30;;;;;;2005255;28;20235;-75
2022/01/05 02:29:49;;;;;;;3.28;1.60;;;14.90;89.30;;;;;;2005353;28;20588;-75
2022/01/05 02:30:52;;;;;;;4.87;1.50;;;14.90;89.30;;;;;;2012679;28;20172;-74
2022/01/05 02:31:50;;;;;;;2.17;1.60;;;14.80;89.40;;;;;;2012549;28;20659;-74
2022/01/05 02:32:50;;;;;;;3.53;1.40;;;14.80;90.00;;;;;;2005226;28;20233;-74
2022/01/05 02:33:49;;;;;;;4.45;1.98;;;14.80;89.30;;;;;;2005374;28;20571;-75
2022/01/05 02:34:48;;;;;;;2.10;1.10;;;14.80;89.20;;;;;;2005261;28;20267;-75
2022/01/05 02:35:47;;;;;;;3.00;1.43;;;14.80;89.30;;;;;;2004572;28;20479;-76
2022/01/05 02:36:45;;;;;;;3.42;1.40;;;14.80;89.50;;;;;;2004751;28;20668;-76
2022/01/05 02:37:50;;;;;;;3.40;1.57;;;14.80;89.60;;;;;;2004313;28;20184;-75
2022/01/05 02:38:50;;;;;;;1.85;1.23;;;14.80;89.60;;;;;;2005301;28;20157;-74
2022/01/05 02:39:49;;;;;;;1.95;1.35;;;14.80;89.40;;;;;;2012359;28;20725;-75
2022/01/05 02:40:49;;;;;;;2.70;1.33;;;14.80;89.60;;;;;;2012689;28;20338;-75
2022/01/05 02:41:49;;;;;;;3.72;1.45;;;14.80;89.60;;;;;;2005448;28;20177;-75
2022/01/05 02:42:48;;;;;;;1.23;1.00;;;14.80;89.80;;;;;;2005294;28;20190;-75
2022/01/05 02:43:48;;;;;;;1.60;1.20;;;14.80;89.80;;;;;;2005195;28;20267;-75
2022/01/05 02:44:46;;;;;;;3.05;1.58;;;14.80;90.00;;;;;;2005158;28;20177;-74
2022/01/05 02:45:48;;;;;;;3.17;1.57;;;14.80;89.80;;;;;;2005173;28;20659;-74
2022/01/05 02:46:46;;;;;;;9.02;1.52;;;14.80;89.90;;;;;;2005118;28;20565;-74
2022/01/05 02:47:45;;;;;;;4.50;2.00;;;14.80;90.00;;;;;;2005344;28;20310;-74
2022/01/05 02:48:44;;;;;;;4.37;1.60;;;14.80;89.80;;;;;;2012453;28;20195;-74
2022/01/05 02:49:44;;;;;;;7.18;1.85;;;14.80;90.00;;;;;;2004738;28;20774;-74
2022/01/05 02:50:42;;;;;;;1.67;1.38;;;14.90;90.10;;;;;;2004756;28;20485;-74
2022/01/05 02:51:42;;;;;;;3.30;1.70;;;14.80;90.00;;;;;;2005043;28;20180;-74
2022/01/05 02:52:41;;;;;;;2.25;1.30;;;14.80;90.10;;;;;;2005021;28;20786;-74
2022/01/05 02:53:40;;;;;;;1.40;1.23;;;14.80;90.10;;;;;;2005125;28;20173;-74
2022/01/05 02:54:39;;;;;;;1.90;1.25;;;14.80;90.10;;;;;;2005063;28;20636;-74
2022/01/05 02:55:37;;;;;;;2.83;1.50;;;14.80;90.10;;;;;;2005228;28;20251;-74
2022/01/05 02:56:36;;;;;;;6.90;1.70;;;14.80;90.10;;;;;;2004294;28;20299;-74
2022/01/05 02:57:35;;;;;;;2.50;1.13;;;14.80;90.20;;;;;;2004546;28;20292;-75
2022/01/05 02:58:34;;;;;;;5.55;1.65;;;14.80;90.20;;;;;;2004896;28;20175;-75
2022/01/05 02:59:32;;;;;;;1.90;1.10;;;14.80;90.30;;;;;;2004978;28;20169;-76
2022/01/05 03:00:31;;;;;;;2.77;1.30;;;14.80;90.20;;;;;;2005182;28;20165;-74
2022/01/05 03:01:31;;;;;;;1.67;1.13;;;14.70;90.20;;;;;;2005038;28;20200;-74
2022/01/05 03:02:30;;;;;;;9.18;2.45;;;14.80;90.30;;;;;;2005007;28;20283;-74
2022/01/05 03:03:28;;;;;;;3.17;1.50;;;14.80;90.30;;;;;;2004838;28;20183;-74
2022/01/05 03:04:27;;;;;;;3.83;1.90;;;14.70;90.10;;;;;;2004988;28;20226;-74
2022/01/05 03:05:26;;;;;;;2.60;1.33;;;14.70;89.80;;;;;;2005167;28;20291;-74
2022/01/05 03:06:24;;;;;;;10.00;1.77;;;14.80;89.90;;;;;;2004895;28;20283;-74
2022/01/05 03:07:22;;;;;;;1.60;1.10;;;14.80;89.80;;;;;;2004406;28;20702;-74
2022/01/05 03:08:21;;;;;;;3.37;1.70;;;14.80;89.70;;;;;;2004509;28;20321;-74
2022/01/05 03:09:21;;;;;;;2.87;1.57;;;14.80;89.50;;;;;;2004859;28;20687;-74
2022/01/05 03:10:20;;;;;;;3.35;1.15;;;14.80;89.30;;;;;;2004201;28;20181;-74
2022/01/05 03:11:18;;;;;;;2.40;1.40;;;14.80;89.10;;;;;;2004539;28;20191;-75
2022/01/05 03:12:17;;;;;;;2.50;1.40;;;14.70;89.30;;;;;;2011612;28;20255;-75
2022/01/05 03:13:16;;;;;;;1.80;1.20;;;14.70;89.20;;;;;;2005601;28;20181;-75
2022/01/05 03:14:14;;;;;;;4.13;1.70;;;14.70;89.20;;;;;;2005022;28;20572;-75
2022/01/05 03:15:14;;;;;;;2.80;1.43;;;14.70;88.80;;;;;;2004901;28;20689;-75
2022/01/05 03:16:12;;;;;;;2.58;1.25;;;14.70;88.90;;;;;;2004986;28;20188;-74
2022/01/05 03:17:11;;;;;;;2.30;1.80;;;14.70;89.20;;;;;;2005064;28;20628;-75
2022/01/05 03:18:09;;;;;;;2.40;1.50;;;14.80;89.20;;;;;;2005025;28;20637;-75
2022/01/05 03:19:08;;;;;;;4.63;1.97;;;14.70;89.20;;;;;;2004454;28;20574;-75
2022/01/05 03:20:08;;;;;;;2.27;1.30;;;14.70;88.40;;;;;;2004388;28;20165;-75
2022/01/05 03:21:06;;;;;;;2.95;1.85;;;14.80;88.70;;;;;;2004931;28;20621;-75
2022/01/05 03:22:05;;;;;;;1.67;1.50;;;14.70;88.50;;;;;;2004857;28;20191;-75
2022/01/05 03:23:04;;;;;;;2.10;1.43;;;14.70;88.90;;;;;;2012213;28;20181;-74
2022/01/05 03:24:02;;;;;;;3.87;1.80;;;14.70;88.70;;;;;;2012385;28;20678;-75
2022/01/05 03:25:01;;;;;;;3.03;1.47;;;14.70;88.60;;;;;;2005249;28;20183;-75
2022/01/05 03:26:00;;;;;;;4.70;2.00;;;14.70;88.40;;;;;;2005193;28;20203;-74
2022/01/05 03:26:58;;;;;;;3.13;1.40;;;14.70;88.60;;;;;;2012258;28;20263;-76
2022/01/05 03:27:58;;;;;;;2.43;1.67;;;14.70;89.00;;;;;;2004148;28;20219;-73
2022/01/05 03:28:58;;;;;;;2.80;1.48;;;14.70;88.70;;;;;;2004211;28;20226;-74
2022/01/05 03:29:56;;;;;;;10.40;1.50;;;14.70;88.80;;;;;;2004887;28;20177;-74
2022/01/05 03:30:55;;;;;;;2.53;1.33;;;14.70;89.10;;;;;;2004897;28;20253;-75
2022/01/05 03:31:53;;;;;;;1.83;1.20;;;14.70;88.80;;;;;;2004937;28;20177;-74
2022/01/05 03:33:59;;;;;;;4.95;1.77;;;14.70;88.60;;;;;;2005101;28;20154;-75
2022/01/05 03:34:57;;;;;;;2.47;1.60;;;14.70;88.90;;;;;;2004891;28;20169;-74
2022/01/05 03:35:56;;;;;;;2.83;1.43;;;14.70;88.80;;;;;;2004179;28;20172;-75
2022/01/05 03:36:56;;;;;;;4.90;1.43;;;14.70;88.80;;;;;;2004273;28;20288;-74
2022/01/05 03:37:56;;;;;;;2.22;1.33;;;14.70;88.50;;;;;;2004664;28;20188;-74
2022/01/05 03:38:55;;;;;;;2.47;1.50;;;14.60;89.60;;;;;;2004581;28;20231;-74
2022/01/05 03:39:54;;;;;;;2.13;1.15;;;14.70;88.80;;;;;;2004748;28;20177;-74
2022/01/05 03:40:53;;;;;;;3.90;1.67;;;14.70;88.90;;;;;;2004743;28;20179;-75
2022/01/05 03:41:51;;;;;;;3.27;1.93;;;14.70;88.90;;;;;;2005010;28;20169;-75
2022/01/05 03:42:51;;;;;;;4.50;1.60;;;14.70;89.10;;;;;;2005016;28;20172;-74
2022/01/05 03:43:50;;;;;;;4.55;1.20;;;14.70;89.00;;;;;;2004974;28;20173;-75
2022/01/05 03:44:48;;;;;;;2.27;1.50;;;14.70;89.10;;;;;;2004817;28;20185;-75
2022/01/05 03:45:47;;;;;;;1.73;1.30;;;14.70;89.20;;;;;;2004785;28;20247;-74
2022/01/05 03:46:46;;;;;;;3.70;2.17;;;14.70;89.40;;;;;;2004778;28;20919;-75
2022/01/05 03:47:45;;;;;;;6.53;2.00;;;14.70;90.00;;;;;;2004907;28;20466;-75
2022/01/05 03:48:45;;;;;;;3.90;1.30;;;14.80;89.50;;;;;;2004708;28;20177;-75
2022/01/05 03:49:43;;;;;;;2.13;1.40;;;14.70;89.50;;;;;;2004709;28;20181;-75
2022/01/05 03:50:42;;;;;;;4.60;1.43;;;14.60;89.60;;;;;;2004621;28;20209;-75
2022/01/05 03:51:40;;;;;;;3.80;1.60;;;14.80;90.00;;;;;;2004704;28;20177;-75
2022/01/05 03:52:39;;;;;;;2.17;1.27;;;14.70;90.00;;;;;;2004791;28;20223;-75
2022/01/05 03:53:37;;;;;;;2.10;1.30;;;14.60;90.00;;;;;;2004858;28;20640;-75
2022/01/05 03:54:36;;;;;;;4.53;1.40;;;14.60;90.00;;;;;;2004684;28;20176;-75
2022/01/05 03:55:36;;;;;;;3.90;1.63;;;14.60;90.10;;;;;;2004985;28;20204;-75
2022/01/05 03:56:35;;;;;;;1.98;1.23;;;14.60;90.10;;;;;;2004906;28;20193;-75
2022/01/05 03:57:33;;;;;;;2.37;1.50;;;14.60;90.10;;;;;;2004951;28;20651;-74
2022/01/05 03:58:32;;;;;;;2.40;1.57;;;14.60;90.10;;;;;;2004815;28;20578;-75
2022/01/05 03:59:30;;;;;;;2.10;0.90;;;14.60;90.20;;;;;;2004943;28;20173;-75
2022/01/05 04:00:31;;;;;;;2.40;1.40;;;14.60;90.30;;;;;;2012101;28;20676;-75
2022/01/05 04:01:29;;;;;;;4.22;1.30;;;14.60;90.40;;;;;;2012032;28;20184;-74
2022/01/05 04:02:29;;;;;;;3.10;1.50;;;14.60;90.40;;;;;;2012295;28;20255;-74
2022/01/05 04:03:27;;;;;;;2.97;1.40;;;14.60;90.50;;;;;;2004197;28;20181;-74
2022/01/05 04:04:26;;;;;;;2.70;1.40;;;14.60;90.60;;;;;;2004573;28;20177;-74
2022/01/05 04:05:25;;;;;;;3.80;1.90;;;14.70;90.60;;;;;;2007126;28;20176;-74
2022/01/05 04:06:23;;;;;;;3.03;1.60;;;14.70;90.50;;;;;;2014391;28;20203;-73
2022/01/05 04:07:23;;;;;;;2.50;1.40;;;14.70;90.40;;;;;;2014316;28;20416;-74
2022/01/05 04:08:21;;;;;;;2.72;1.40;;;14.60;90.40;;;;;;2014423;28;20202;-73
2022/01/05 04:09:21;;;;;;;5.93;1.10;;;14.70;90.40;;;;;;2011146;28;20218;-75
2022/01/05 04:10:20;;;;;;;2.65;1.20;;;14.60;90.20;;;;;;2004835;28;20177;-75
2022/01/05 04:11:18;;;;;;;2.80;1.60;;;14.60;90.50;;;;;;2004952;28;20556;-74
2022/01/05 04:12:18;;;;;;;3.37;1.37;;;14.70;90.20;;;;;;2003986;28;20322;-74
2022/01/05 04:13:18;;;;;;;2.65;1.40;;;14.60;90.20;;;;;;2004055;28;20177;-75
2022/01/05 04:14:17;;;;;;;3.38;1.40;;;14.70;90.30;;;;;;2004798;28;20227;-75
2022/01/05 04:15:17;;;;;;;5.33;1.20;;;14.60;90.20;;;;;;2004505;28;20181;-75
2022/01/05 04:16:15;;;;;;;2.35;1.50;;;14.70;90.20;;;;;;2004921;28;20718;-75
2022/01/05 04:17:14;;;;;;;1.70;1.10;;;14.70;90.20;;;;;;2004561;28;20320;-75
2022/01/05 04:18:12;;;;;;;5.10;1.70;;;14.70;90.20;;;;;;2004880;28;20548;-74
2022/01/05 04:19:11;;;;;;;2.70;1.10;;;14.70;90.20;;;;;;2004960;28;20177;-75
2022/01/05 04:20:11;;;;;;;4.73;1.57;;;14.70;90.20;;;;;;2004605;28;20544;-75
2022/01/05 04:21:11;;;;;;;2.33;1.20;;;14.70;90.20;;;;;;2004735;28;20169;-75
2022/01/05 04:22:10;;;;;;;2.55;1.73;;;14.60;90.10;;;;;;2004555;28;20200;-75
2022/01/05 04:23:09;;;;;;;2.67;1.55;;;14.60;90.20;;;;;;2003930;28;20173;-75
2022/01/05 04:24:08;;;;;;;2.47;1.48;;;14.60;90.30;;;;;;2004044;28;20169;-75
2022/01/05 04:25:07;;;;;;;4.03;1.63;;;14.60;90.30;;;;;;2004537;28;20165;-74
2022/01/05 04:26:05;;;;;;;2.23;1.37;;;14.60;90.30;;;;;;2004624;28;20169;-74
2022/01/05 04:27:04;;;;;;;3.00;1.33;;;14.60;90.30;;;;;;2004459;28;20169;-74
2022/01/05 04:28:05;;;;;;;3.20;1.60;;;14.60;90.30;;;;;;2004599;28;20172;-74
2022/01/05 04:29:03;;;;;;;2.72;1.42;;;14.60;90.30;;;;;;2004545;28;20454;-75
2022/01/05 04:30:05;;;;;;;2.00;1.37;;;14.60;90.40;;;;;;2004738;28;20568;-74
2022/01/05 04:31:03;;;;;;;3.20;1.58;;;14.60;90.30;;;;;;2004857;28;20196;-74
2022/01/05 04:32:02;;;;;;;3.03;1.43;;;14.60;90.30;;;;;;2004541;28;20211;-75
2022/01/05 04:33:01;;;;;;;3.63;1.60;;;14.60;90.40;;;;;;2004625;28;20177;-75
2022/01/05 04:33:59;;;;;;;2.30;1.20;;;14.60;90.40;;;;;;2004619;28;20451;-75
2022/01/05 04:34:58;;;;;;;2.20;1.20;;;14.60;90.40;;;;;;2004811;28;20181;-75
2022/01/05 04:35:56;;;;;;;2.30;1.47;;;14.60;90.50;;;;;;2004673;28;20708;-75
2022/01/05 04:36:56;;;;;;;2.33;1.40;;;14.60;90.40;;;;;;2004600;28;20656;-75
2022/01/05 04:37:55;;;;;;;2.95;1.80;;;14.60;90.50;;;;;;2004709;28;20237;-75
2022/01/05 04:38:55;;;;;;;6.10;1.60;;;14.60;90.50;;;;;;2004418;28;20639;-75
2022/01/05 04:39:54;;;;;;;3.67;1.10;;;14.60;90.40;;;;;;2003917;28;20546;-75
2022/01/05 04:40:52;;;;;;;3.67;1.80;;;14.60;90.50;;;;;;2003845;28;20178;-75
2022/01/05 04:41:51;;;;;;;2.20;1.30;;;14.60;90.50;;;;;;2004882;28;20201;-75
2022/01/05 04:42:50;;;;;;;4.03;1.80;;;14.60;90.50;;;;;;2004845;28;20239;-75
2022/01/05 04:43:52;;;;;;;4.37;1.57;;;14.60;90.50;;;;;;2004957;28;20177;-75
2022/01/05 04:44:50;;;;;;;1.40;1.30;;;14.60;90.60;;;;;;2004623;28;20197;-75
2022/01/05 04:45:49;;;;;;;2.63;1.30;;;14.60;90.60;;;;;;2004789;28;20625;-75
2022/01/05 04:46:49;;;;;;;3.50;1.67;;;14.60;90.70;;;;;;2004585;28;20197;-74
2022/01/05 04:47:49;;;;;;;2.55;1.35;;;14.60;90.80;;;;;;2004548;28;20247;-74
2022/01/05 04:48:47;;;;;;;2.65;1.35;;;14.60;90.80;;;;;;2004840;28;20655;-75
2022/01/05 04:49:46;;;;;;;2.20;1.17;;;14.60;90.80;;;;;;2012136;28;20195;-74
2022/01/05 04:50:45;;;;;;;3.17;1.50;;;14.60;90.80;;;;;;2011919;28;20169;-75
2022/01/05 04:51:44;;;;;;;2.07;1.60;;;14.60;90.80;;;;;;2005465;28;20169;-74
2022/01/05 04:52:42;;;;;;;2.75;1.60;;;14.60;90.80;;;;;;2004100;28;20257;-74
2022/01/05 04:53:41;;;;;;;2.50;0.97;;;14.60;90.80;;;;;;2004213;28;20208;-75
2022/01/05 04:54:39;;;;;;;1.60;1.20;;;14.60;90.80;;;;;;2005273;28;20193;-75
2022/01/05 04:55:39;;;;;;;4.30;1.67;;;14.60;90.80;;;;;;2005584;28;20624;-75
2022/01/05 04:56:38;;;;;;;1.90;1.40;;;14.60;90.70;;;;;;2005764;28;20196;-75
2022/01/05 04:57:36;;;;;;;4.00;1.20;;;14.60;90.80;;;;;;2006599;28;20188;-75
2022/01/05 04:58:35;;;;;;;3.37;1.60;;;14.60;90.80;;;;;;2006333;28;20304;-75
2022/01/05 04:59:34;;;;;;;2.30;1.20;;;14.50;90.70;;;;;;2006339;28;20185;-75
2022/01/05 05:00:33;;;;;;;4.53;1.60;;;14.60;90.70;;;;;;2006557;28;20647;-75
2022/01/05 05:01:31;;;;;;;1.73;1.27;;;14.60;90.70;;;;;;2006474;28;20208;-75
2022/01/05 05:02:30;;;;;;;4.20;1.50;;;14.60;90.60;;;;;;2006027;28;20177;-75
2022/01/05 05:03:28;;;;;;;4.13;1.60;;;14.60;90.80;;;;;;2005915;28;20243;-75
2022/01/05 05:04:28;;;;;;;4.10;1.70;;;14.60;90.60;;;;;;2005994;28;20201;-75
2022/01/05 05:05:27;;;;;;;3.15;1.70;;;14.60;90.60;;;;;;2006147;28;20240;-74
2022/01/05 05:06:25;;;;;;;2.90;1.70;;;14.60;90.70;;;;;;2005830;28;20273;-75
2022/01/05 05:07:24;;;;;;;2.43;1.60;;;14.60;90.60;;;;;;2006089;28;20256;-75
2022/01/05 05:08:22;;;;;;;2.33;1.40;;;14.60;90.70;;;;;;2005883;28;20177;-75